createdAt,value
2022-11-16T00:00:42.266Z,7.90
2022-11-16T00:01:43.918Z,7.53
2022-11-16T00:02:45.451Z,7.45
2022-11-16T00:03:47.191Z,7.40
2022-11-16T00:04:48.636Z,7.26
2022-11-16T00:05:55.878Z,7.24
2022-11-16T00:06:57.341Z,7.17
2022-11-16T00:07:58.887Z,7.25
2022-11-16T00:09:02.559Z,7.31
2022-11-16T00:10:04.730Z,7.46
2022-11-16T00:11:07.854Z,7.48
2022-11-16T00:12:09.272Z,7.41
2022-11-16T00:13:10.688Z,7.51
2022-11-16T00:14:12.153Z,7.37
2022-11-16T00:15:15.026Z,7.32
2022-11-16T00:16:17.942Z,7.34
2022-11-16T00:17:19.391Z,7.37
2022-11-16T00:18:20.818Z,7.49
2022-11-16T00:19:22.888Z,7.54
2022-11-16T00:20:24.351Z,7.39
2022-11-16T00:21:26.559Z,7.41
2022-11-16T00:22:27.957Z,7.36
2022-11-16T00:23:29.415Z,7.35
2022-11-16T00:24:30.818Z,7.31
2022-11-16T00:25:33.821Z,7.25
2022-11-16T00:26:35.227Z,7.33
2022-11-16T00:27:36.662Z,7.35
2022-11-16T00:28:38.126Z,7.37
2022-11-16T00:29:39.551Z,7.41
2022-11-16T00:30:42.325Z,7.33
2022-11-16T00:31:44.478Z,7.45
2022-11-16T00:32:45.890Z,7.48
2022-11-16T00:33:48.324Z,7.47
2022-11-16T00:34:49.776Z,7.42
2022-11-16T00:35:51.218Z,7.41
2022-11-16T00:36:52.719Z,7.75
2022-11-16T00:37:54.188Z,7.99
2022-11-16T00:38:55.763Z,8.08
2022-11-16T00:39:57.204Z,8.16
2022-11-16T00:40:58.859Z,8.24
2022-11-16T00:42:00.352Z,8.28
2022-11-16T00:43:01.790Z,8.23
2022-11-16T00:44:03.301Z,8.23
2022-11-16T00:45:05.314Z,8.30
2022-11-16T00:46:09.421Z,8.35
2022-11-16T00:47:10.839Z,8.48
2022-11-16T00:48:12.811Z,8.57
2022-11-16T00:49:14.842Z,8.58
2022-11-16T00:50:16.706Z,8.53
2022-11-16T00:51:18.196Z,8.57
2022-11-16T00:52:19.642Z,8.60
2022-11-16T00:53:21.404Z,8.65
2022-11-16T00:54:22.930Z,8.69
2022-11-16T00:55:24.388Z,8.75
2022-11-16T00:56:25.884Z,8.70
2022-11-16T00:57:27.284Z,8.58
2022-11-16T00:58:28.728Z,8.48
2022-11-16T00:59:30.188Z,8.51
2022-11-16T01:00:31.694Z,8.55
2022-11-16T01:01:34.598Z,8.48
2022-11-16T01:02:36.056Z,8.49
2022-11-16T01:03:38.252Z,8.30
2022-11-16T01:04:39.677Z,8.14
2022-11-16T01:05:41.197Z,8.16
2022-11-16T01:06:42.692Z,8.09
2022-11-16T01:07:44.156Z,8.04
2022-11-16T01:08:46.192Z,8.18
2022-11-16T01:09:47.653Z,7.97
2022-11-16T01:10:49.055Z,7.90
2022-11-16T01:11:50.551Z,8.03
2022-11-16T01:12:52.899Z,8.32
2022-11-16T01:13:55.368Z,8.41
2022-11-16T01:14:56.791Z,8.30
2022-11-16T01:15:58.308Z,8.13
2022-11-16T01:17:01.122Z,8.26
2022-11-16T01:18:02.562Z,8.16
2022-11-16T01:19:05.000Z,8.15
2022-11-16T01:20:10.515Z,8.05
2022-11-16T01:21:11.954Z,8.01
2022-11-16T01:22:13.444Z,8.04
2022-11-16T01:23:14.902Z,8.02
2022-11-16T01:24:16.376Z,7.97
2022-11-16T01:25:18.363Z,7.99
2022-11-16T01:26:19.818Z,8.01
2022-11-16T01:27:21.262Z,7.97
2022-11-16T01:28:22.735Z,7.93
2022-11-16T01:29:24.473Z,8.01
2022-11-16T01:30:25.898Z,8.19
2022-11-16T01:31:27.309Z,8.30
2022-11-16T01:32:30.082Z,8.20
2022-11-16T01:33:31.529Z,8.33
2022-11-16T01:34:33.029Z,8.45
2022-11-16T01:35:34.542Z,8.49
2022-11-16T01:36:36.005Z,8.56
2022-11-16T01:37:37.439Z,8.56
2022-11-16T01:38:38.855Z,8.60
2022-11-16T01:39:41.432Z,8.67
2022-11-16T01:40:43.090Z,8.68
2022-11-16T01:41:44.707Z,8.70
2022-11-16T01:42:46.124Z,8.68
2022-11-16T01:43:54.017Z,8.66
2022-11-16T01:45:01.816Z,8.64
2022-11-16T01:46:03.229Z,8.67
2022-11-16T01:47:08.399Z,8.66
2022-11-16T01:48:13.816Z,8.60
2022-11-16T01:49:21.944Z,8.54
2022-11-16T01:50:23.654Z,8.57
2022-11-16T01:51:26.220Z,8.60
2022-11-16T01:52:31.007Z,8.60
2022-11-16T01:53:32.530Z,8.55
2022-11-16T01:54:37.724Z,8.59
2022-11-16T01:55:42.313Z,8.46
2022-11-16T01:56:45.345Z,8.05
2022-11-16T01:57:48.660Z,8.07
2022-11-16T01:58:51.080Z,8.08
2022-11-16T01:59:57.928Z,8.01
2022-11-16T02:00:59.520Z,8.28
2022-11-16T02:02:01.626Z,8.52
2022-11-16T02:03:03.159Z,8.46
2022-11-16T02:04:06.195Z,8.49
2022-11-16T02:05:09.421Z,8.19
2022-11-16T02:06:28.463Z,8.44
2022-11-16T02:07:46.702Z,8.20
2022-11-16T02:09:03.040Z,8.27
2022-11-16T02:10:15.172Z,8.38
2022-11-16T02:11:32.572Z,8.49
2022-11-16T02:13:02.631Z,8.58
2022-11-16T02:14:15.458Z,8.58
2022-11-16T02:15:25.298Z,8.28
2022-11-16T02:16:34.890Z,8.49
2022-11-16T02:17:48.327Z,8.56
2022-11-16T02:18:56.087Z,8.56
2022-11-16T02:20:29.969Z,8.59
2022-11-16T02:21:40.780Z,8.61
2022-11-16T02:23:05.773Z,8.63
2022-11-16T02:24:39.802Z,8.59
2022-11-16T02:25:53.576Z,8.55
2022-11-16T02:27:27.904Z,8.50
2022-11-16T02:28:39.019Z,8.62
2022-11-16T02:29:45.467Z,8.67
2022-11-16T02:30:50.782Z,8.72
2022-11-16T02:31:59.735Z,8.77
2022-11-16T02:33:07.570Z,8.78
2022-11-16T02:34:12.635Z,8.84
2022-11-16T02:35:19.563Z,8.86
2022-11-16T02:36:23.936Z,8.98
2022-11-16T02:37:28.389Z,8.99
2022-11-16T02:38:34.894Z,8.98
2022-11-16T02:39:39.037Z,8.87
2022-11-16T02:40:44.065Z,9.00
2022-11-16T02:41:48.641Z,9.07
2022-11-16T02:42:54.525Z,9.15
2022-11-16T02:44:02.211Z,9.17
2022-11-16T02:45:08.113Z,9.10
2022-11-16T02:46:15.992Z,9.12
2022-11-16T02:47:21.885Z,9.12
2022-11-16T02:48:27.159Z,9.04
2022-11-16T02:49:31.105Z,9.10
2022-11-16T02:50:33.606Z,9.07
2022-11-16T02:51:37.287Z,9.05
2022-11-16T02:52:38.925Z,9.08
2022-11-16T02:53:51.304Z,9.03
2022-11-16T02:54:52.749Z,8.90
2022-11-16T02:55:54.311Z,8.93
2022-11-16T02:57:12.121Z,8.78
2022-11-16T02:58:17.152Z,8.91
2022-11-16T02:59:19.148Z,8.87
2022-11-16T03:00:24.690Z,9.03
2022-11-16T03:01:33.425Z,9.05
2022-11-16T03:02:43.933Z,9.01
2022-11-16T03:03:52.560Z,9.04
2022-11-16T03:05:00.458Z,8.99
2022-11-16T03:06:05.396Z,8.99
2022-11-16T03:07:12.393Z,8.96
2022-11-16T03:08:20.302Z,8.91
2022-11-16T03:09:27.031Z,8.93
2022-11-16T03:10:29.261Z,8.98
2022-11-16T03:11:33.132Z,8.87
2022-11-16T03:12:36.084Z,8.80
2022-11-16T03:13:39.153Z,8.82
2022-11-16T03:14:43.972Z,8.80
2022-11-16T03:15:50.105Z,8.76
2022-11-16T03:16:56.041Z,8.79
2022-11-16T03:18:00.072Z,8.81
2022-11-16T03:19:05.240Z,8.82
2022-11-16T03:20:11.331Z,8.73
2022-11-16T03:21:18.177Z,8.70
2022-11-16T03:22:26.712Z,8.63
2022-11-16T03:23:28.174Z,8.62
2022-11-16T03:24:29.873Z,8.56
2022-11-16T03:25:36.771Z,8.55
2022-11-16T03:26:46.247Z,8.56
2022-11-16T03:27:52.877Z,8.31
2022-11-16T03:28:59.984Z,8.60
2022-11-16T03:30:05.919Z,8.54
2022-11-16T03:31:13.260Z,8.38
2022-11-16T03:32:20.517Z,8.38
2022-11-16T03:33:25.606Z,8.42
2022-11-16T03:34:32.015Z,8.36
2022-11-16T03:35:40.837Z,8.34
2022-11-16T03:36:46.432Z,8.26
2022-11-16T03:37:50.495Z,8.46
2022-11-16T03:38:52.950Z,8.48
2022-11-16T03:39:56.111Z,8.47
2022-11-16T03:41:01.733Z,8.59
2022-11-16T03:42:10.892Z,8.59
2022-11-16T03:43:13.899Z,8.51
2022-11-16T03:44:18.579Z,8.50
2022-11-16T03:45:20.828Z,8.60
2022-11-16T03:46:24.217Z,8.52
2022-11-16T03:47:25.708Z,8.46
2022-11-16T03:48:34.557Z,8.52
2022-11-16T03:49:36.163Z,8.58
2022-11-16T03:50:37.976Z,8.46
2022-11-16T03:51:39.483Z,8.30
2022-11-16T03:52:41.029Z,8.43
2022-11-16T03:53:42.436Z,8.32
2022-11-16T03:54:43.880Z,8.34
2022-11-16T03:55:49.644Z,8.32
2022-11-16T03:56:51.517Z,8.35
2022-11-16T03:57:53.011Z,8.42
2022-11-16T03:58:54.508Z,8.37
2022-11-16T03:59:56.072Z,8.40
2022-11-16T04:00:57.631Z,8.40
2022-11-16T04:02:00.465Z,8.49
2022-11-16T04:03:01.880Z,8.28
2022-11-16T04:04:03.516Z,8.26
2022-11-16T04:05:05.500Z,8.33
2022-11-16T04:06:06.979Z,8.42
2022-11-16T04:07:08.796Z,8.31
2022-11-16T04:08:14.556Z,8.41
2022-11-16T04:09:16.032Z,8.37
2022-11-16T04:10:17.474Z,8.33
2022-11-16T04:11:21.539Z,8.20
2022-11-16T04:12:22.967Z,8.24
2022-11-16T04:13:29.558Z,8.16
2022-11-16T04:14:31.646Z,7.93
2022-11-16T04:15:33.126Z,8.05
2022-11-16T04:16:34.571Z,7.96
2022-11-16T04:17:37.327Z,7.99
2022-11-16T04:18:38.738Z,8.02
2022-11-16T04:19:40.164Z,8.08
2022-11-16T04:20:43.650Z,8.21
2022-11-16T04:21:48.974Z,7.98
2022-11-16T04:22:54.400Z,8.01
2022-11-16T04:23:55.938Z,8.19
2022-11-16T04:25:04.948Z,8.04
2022-11-16T04:26:08.189Z,7.95
2022-11-16T04:27:12.896Z,8.10
2022-11-16T04:28:16.221Z,8.02
2022-11-16T04:29:18.544Z,8.19
2022-11-16T04:30:20.177Z,8.12
2022-11-16T04:31:21.627Z,8.02
2022-11-16T04:32:23.174Z,8.06
2022-11-16T04:33:26.495Z,8.06
2022-11-16T04:34:27.935Z,8.11
2022-11-16T04:35:29.387Z,7.95
2022-11-16T04:36:30.808Z,7.99
2022-11-16T04:37:32.220Z,7.95
2022-11-16T04:38:33.871Z,7.76
2022-11-16T04:39:35.477Z,8.02
2022-11-16T04:40:36.921Z,7.97
2022-11-16T04:41:38.328Z,7.94
2022-11-16T04:42:39.769Z,7.97
2022-11-16T04:43:41.217Z,7.96
2022-11-16T04:44:42.656Z,7.83
2022-11-16T04:45:44.042Z,7.93
2022-11-16T04:46:45.485Z,7.86
2022-11-16T04:47:48.611Z,7.91
2022-11-16T04:48:51.380Z,8.03
2022-11-16T04:49:52.799Z,7.98
2022-11-16T04:50:54.198Z,8.06
2022-11-16T04:51:55.629Z,7.90
2022-11-16T04:52:57.136Z,7.94
2022-11-16T04:53:58.585Z,7.83
2022-11-16T04:55:00.045Z,7.93
2022-11-16T04:56:01.496Z,8.08
2022-11-16T04:57:02.991Z,8.08
2022-11-16T04:58:04.737Z,7.98
2022-11-16T04:59:06.166Z,8.09
2022-11-16T05:00:08.824Z,7.91
2022-11-16T05:01:10.342Z,7.99
2022-11-16T05:02:11.843Z,8.03
2022-11-16T05:03:13.256Z,7.81
2022-11-16T05:04:16.041Z,7.86
2022-11-16T05:05:17.794Z,7.87
2022-11-16T05:06:19.241Z,7.93
2022-11-16T05:07:20.765Z,8.07
2022-11-16T05:08:22.267Z,8.07
2022-11-16T05:09:23.707Z,7.84
2022-11-16T05:10:25.289Z,7.93
2022-11-16T05:11:26.749Z,8.03
2022-11-16T05:12:28.551Z,7.92
2022-11-16T05:13:29.981Z,7.97
2022-11-16T05:14:31.395Z,7.99
2022-11-16T05:15:32.833Z,8.04
2022-11-16T05:16:34.244Z,7.93
2022-11-16T05:17:35.719Z,8.04
2022-11-16T05:18:37.242Z,8.06
2022-11-16T05:19:40.287Z,7.91
2022-11-16T05:20:42.102Z,7.98
2022-11-16T05:21:43.560Z,8.06
2022-11-16T05:22:45.082Z,8.22
2022-11-16T05:23:46.590Z,8.13
2022-11-16T05:24:48.187Z,7.98
2022-11-16T05:25:49.628Z,8.15
2022-11-16T05:26:51.050Z,8.28
2022-11-16T05:27:52.521Z,8.25
2022-11-16T05:28:53.996Z,8.11
2022-11-16T05:29:55.787Z,8.25
2022-11-16T05:30:57.293Z,8.31
2022-11-16T05:31:59.045Z,8.21
2022-11-16T05:33:00.456Z,8.08
2022-11-16T05:34:01.867Z,8.17
2022-11-16T05:35:05.163Z,8.10
2022-11-16T05:36:07.676Z,8.27
2022-11-16T05:37:09.722Z,8.21
2022-11-16T05:38:11.115Z,8.19
2022-11-16T05:39:12.787Z,8.20
2022-11-16T05:40:14.909Z,8.21
2022-11-16T05:41:16.331Z,8.05
2022-11-16T05:42:17.849Z,8.10
2022-11-16T05:43:19.289Z,8.13
2022-11-16T05:44:20.756Z,8.12
2022-11-16T05:45:22.208Z,8.10
2022-11-16T05:46:24.302Z,8.20
2022-11-16T05:47:25.725Z,8.04
2022-11-16T05:48:27.154Z,8.04
2022-11-16T05:49:28.599Z,8.23
2022-11-16T05:50:31.423Z,8.23
2022-11-16T05:51:32.865Z,8.25
2022-11-16T05:52:34.293Z,8.02
2022-11-16T05:53:35.732Z,8.19
2022-11-16T05:54:37.155Z,8.24
2022-11-16T05:55:39.076Z,8.22
2022-11-16T05:56:40.648Z,8.34
2022-11-16T05:57:42.134Z,8.31
2022-11-16T05:58:43.676Z,8.22
2022-11-16T05:59:45.095Z,8.38
2022-11-16T06:00:46.794Z,8.34
2022-11-16T06:01:48.953Z,8.42
2022-11-16T06:02:50.410Z,8.46
2022-11-16T06:03:51.985Z,8.43
2022-11-16T06:04:53.417Z,8.49
2022-11-16T06:05:56.594Z,8.40
2022-11-16T06:06:58.054Z,8.45
2022-11-16T06:07:59.469Z,8.43
2022-11-16T06:09:00.934Z,8.50
2022-11-16T06:10:02.419Z,8.51
2022-11-16T06:11:05.741Z,8.47
2022-11-16T06:12:07.373Z,8.52
2022-11-16T06:13:08.777Z,8.51
2022-11-16T06:14:10.187Z,8.53
2022-11-16T06:15:11.615Z,8.58
2022-11-16T06:16:13.418Z,8.53
2022-11-16T06:17:14.838Z,8.55
2022-11-16T06:18:16.265Z,8.46
2022-11-16T06:19:17.696Z,8.41
2022-11-16T06:20:19.199Z,8.43
2022-11-16T06:21:21.993Z,8.43
2022-11-16T06:22:23.549Z,8.43
2022-11-16T06:23:36.399Z,8.47
2022-11-16T06:24:38.028Z,8.46
2022-11-16T06:25:40.431Z,8.25
2022-11-16T06:26:41.965Z,8.35
2022-11-16T06:27:43.464Z,8.34
2022-11-16T06:28:44.929Z,8.27
2022-11-16T06:29:46.365Z,8.50
2022-11-16T06:30:48.653Z,8.40
2022-11-16T06:31:50.133Z,8.41
2022-11-16T06:32:51.630Z,8.48
2022-11-16T06:33:53.050Z,8.47
2022-11-16T06:34:54.457Z,8.42
2022-11-16T06:35:55.912Z,8.40
2022-11-16T06:36:58.651Z,8.32
2022-11-16T06:38:00.114Z,8.43
2022-11-16T06:39:01.870Z,8.33
2022-11-16T06:40:03.909Z,8.26
2022-11-16T06:41:05.421Z,8.32
2022-11-16T06:42:06.829Z,8.30
2022-11-16T06:43:08.272Z,8.36
2022-11-16T06:44:09.939Z,8.41
2022-11-16T06:45:11.381Z,8.47
2022-11-16T06:46:12.845Z,8.49
2022-11-16T06:47:14.519Z,8.61
2022-11-16T06:48:16.056Z,8.57
2022-11-16T06:49:17.468Z,8.38
2022-11-16T06:50:19.160Z,8.33
2022-11-16T06:51:20.698Z,8.57
2022-11-16T06:52:23.476Z,8.50
2022-11-16T06:53:29.201Z,8.55
2022-11-16T06:54:30.907Z,8.47
2022-11-16T06:55:32.354Z,8.46
2022-11-16T06:56:34.392Z,8.60
2022-11-16T06:57:35.847Z,8.53
2022-11-16T06:58:37.652Z,8.48
2022-11-16T06:59:39.341Z,8.51
2022-11-16T07:00:40.951Z,8.60
2022-11-16T07:01:42.512Z,8.73
2022-11-16T07:02:44.063Z,8.64
2022-11-16T07:03:45.528Z,8.64
2022-11-16T07:04:46.947Z,8.50
2022-11-16T07:05:48.356Z,8.55
2022-11-16T07:06:49.838Z,8.35
2022-11-16T07:07:55.018Z,8.45
2022-11-16T07:08:56.471Z,8.43
2022-11-16T07:09:58.084Z,8.36
2022-11-16T07:11:04.284Z,8.46
2022-11-16T07:12:06.293Z,8.47
2022-11-16T07:13:07.756Z,8.48
2022-11-16T07:14:09.245Z,8.42
2022-11-16T07:15:11.741Z,8.48
2022-11-16T07:16:13.165Z,8.27
2022-11-16T07:17:14.607Z,8.45
2022-11-16T07:18:16.014Z,8.36
2022-11-16T07:19:17.458Z,8.42
2022-11-16T07:20:18.930Z,8.49
2022-11-16T07:21:20.375Z,8.42
2022-11-16T07:22:21.834Z,8.44
2022-11-16T07:23:24.605Z,8.48
2022-11-16T07:24:26.087Z,8.46
2022-11-16T07:25:27.642Z,8.50
2022-11-16T07:26:29.105Z,8.49
2022-11-16T07:27:30.653Z,8.44
2022-11-16T07:28:32.963Z,8.55
2022-11-16T07:29:34.765Z,8.51
2022-11-16T07:30:36.171Z,8.30
2022-11-16T07:31:37.760Z,8.28
2022-11-16T07:32:39.200Z,8.48
2022-11-16T07:33:40.673Z,8.49
2022-11-16T07:34:42.123Z,8.45
2022-11-16T07:35:43.592Z,8.54
2022-11-16T07:36:45.024Z,8.56
2022-11-16T07:37:46.428Z,8.60
2022-11-16T07:38:49.163Z,8.52
2022-11-16T07:39:50.566Z,8.71
2022-11-16T07:40:51.993Z,8.58
2022-11-16T07:41:53.429Z,8.57
2022-11-16T07:42:57.286Z,8.56
2022-11-16T07:43:59.010Z,8.36
2022-11-16T07:45:00.444Z,8.34
2022-11-16T07:46:28.281Z,8.56
2022-11-16T07:47:24.087Z,8.57
2022-11-16T07:48:25.545Z,8.65
2022-11-16T07:49:26.980Z,8.53
2022-11-16T07:50:28.505Z,8.46
2022-11-16T07:51:31.547Z,8.59
2022-11-16T07:52:33.067Z,8.67
2022-11-16T07:53:35.353Z,8.64
2022-11-16T07:54:38.166Z,8.66
2022-11-16T07:55:40.007Z,8.78
2022-11-16T07:56:42.059Z,8.81
2022-11-16T07:57:43.564Z,8.93
2022-11-16T07:58:45.034Z,8.83
2022-11-16T07:59:46.527Z,8.88
2022-11-16T08:00:48.303Z,8.88
2022-11-16T08:01:49.798Z,8.89
2022-11-16T08:02:51.270Z,8.76
2022-11-16T08:03:54.014Z,8.77
2022-11-16T08:04:55.481Z,8.81
2022-11-16T08:05:59.841Z,8.79
2022-11-16T08:07:01.356Z,8.82
2022-11-16T08:08:02.852Z,8.81
2022-11-16T08:09:04.420Z,8.76
2022-11-16T08:10:08.395Z,8.75
2022-11-16T08:11:11.573Z,8.79
2022-11-16T08:12:13.059Z,8.78
2022-11-16T08:13:14.536Z,8.74
2022-11-16T08:14:15.969Z,8.78
2022-11-16T08:15:17.424Z,8.81
2022-11-16T08:16:20.636Z,8.84
2022-11-16T08:17:22.045Z,8.93
2022-11-16T08:18:23.449Z,9.06
2022-11-16T08:19:24.892Z,9.00
2022-11-16T08:20:26.331Z,8.96
2022-11-16T08:21:27.792Z,8.90
2022-11-16T08:22:29.313Z,8.96
2022-11-16T08:23:31.846Z,9.02
2022-11-16T08:24:33.372Z,8.95
2022-11-16T08:25:36.161Z,8.99
2022-11-16T08:26:37.609Z,9.00
2022-11-16T08:27:39.139Z,8.95
2022-11-16T08:28:41.489Z,8.96
2022-11-16T08:29:43.057Z,8.80
2022-11-16T08:30:48.379Z,9.00
2022-11-16T08:31:52.489Z,8.89
2022-11-16T08:32:53.935Z,8.80
2022-11-16T08:33:55.587Z,8.96
2022-11-16T08:34:57.121Z,8.92
2022-11-16T08:36:03.485Z,8.99
2022-11-16T08:37:04.934Z,9.08
2022-11-16T08:38:06.336Z,9.02
2022-11-16T08:39:07.945Z,8.96
2022-11-16T08:40:10.675Z,8.99
2022-11-16T08:41:14.148Z,9.16
2022-11-16T08:42:15.601Z,9.20
2022-11-16T08:43:17.018Z,9.23
2022-11-16T08:44:19.267Z,9.17
2022-11-16T08:45:20.712Z,9.26
2022-11-16T08:46:22.141Z,9.23
2022-11-16T08:47:23.591Z,9.30
2022-11-16T08:48:25.135Z,9.24
2022-11-16T08:49:27.162Z,9.30
2022-11-16T08:50:28.587Z,9.26
2022-11-16T08:51:30.038Z,9.19
2022-11-16T08:52:31.442Z,9.34
2022-11-16T08:53:33.026Z,9.35
2022-11-16T08:54:34.496Z,9.47
2022-11-16T08:55:36.141Z,9.59
2022-11-16T08:56:38.950Z,9.66
2022-11-16T08:57:40.425Z,9.91
2022-11-16T08:58:42.657Z,10.06
2022-11-16T08:59:44.110Z,9.91
2022-11-16T09:00:45.620Z,10.15
2022-11-16T09:01:47.109Z,10.25
2022-11-16T09:02:48.653Z,10.09
2022-11-16T09:03:50.099Z,10.19
2022-11-16T09:04:51.762Z,10.31
2022-11-16T09:05:53.203Z,10.43
2022-11-16T09:06:54.736Z,10.40
2022-11-16T09:07:56.358Z,10.50
2022-11-16T09:08:57.872Z,10.52
2022-11-16T09:09:59.313Z,10.47
2022-11-16T09:11:04.149Z,10.35
2022-11-16T09:12:07.172Z,10.28
2022-11-16T09:13:08.613Z,10.60
2022-11-16T09:14:10.062Z,10.68
2022-11-16T09:15:11.775Z,10.58
2022-11-16T09:16:13.750Z,10.71
2022-11-16T09:17:20.213Z,10.69
2022-11-16T09:18:24.818Z,10.55
2022-11-16T09:19:26.280Z,10.69
2022-11-16T09:20:27.688Z,10.71
2022-11-16T09:21:30.117Z,10.73
2022-11-16T09:22:31.572Z,10.52
2022-11-16T09:23:33.048Z,10.64
2022-11-16T09:24:34.506Z,10.46
2022-11-16T09:25:35.940Z,10.59
2022-11-16T09:26:37.385Z,10.80
2022-11-16T09:27:40.167Z,10.69
2022-11-16T09:28:41.680Z,10.89
2022-11-16T09:29:43.160Z,10.80
2022-11-16T09:30:46.178Z,10.51
2022-11-16T09:31:47.707Z,10.77
2022-11-16T09:32:49.130Z,10.90
2022-11-16T09:33:50.888Z,10.53
2022-11-16T09:34:52.315Z,10.67
2022-11-16T09:35:53.728Z,10.62
2022-11-16T09:36:55.145Z,10.65
2022-11-16T09:37:56.656Z,10.63
2022-11-16T09:40:20.509Z,10.82
2022-11-16T09:41:48.823Z,10.82
2022-11-16T09:43:04.266Z,10.78
2022-11-16T09:44:16.876Z,10.98
2022-11-16T09:45:24.621Z,10.96
2022-11-16T09:46:31.520Z,10.72
2022-11-16T09:47:40.809Z,10.52
2022-11-16T09:48:42.330Z,10.59
2022-11-16T09:49:48.788Z,10.70
2022-11-16T09:50:53.950Z,10.68
2022-11-16T09:52:00.313Z,10.66
2022-11-16T09:53:13.950Z,10.81
2022-11-16T09:54:20.484Z,10.79
2022-11-16T09:55:26.209Z,10.72
2022-11-16T09:56:31.366Z,10.96
2022-11-16T09:57:37.064Z,11.00
2022-11-16T09:58:46.071Z,10.79
2022-11-16T09:59:49.526Z,11.00
2022-11-16T10:00:56.557Z,10.84
2022-11-16T10:02:01.592Z,10.83
2022-11-16T10:03:06.361Z,11.15
2022-11-16T10:04:13.370Z,11.43
2022-11-16T10:05:19.980Z,11.24
2022-11-16T10:06:25.917Z,11.50
2022-11-16T10:07:33.538Z,11.55
2022-11-16T10:08:42.406Z,10.86
2022-11-16T10:09:44.944Z,11.13
2022-11-16T10:10:54.746Z,11.19
2022-11-16T10:12:14.464Z,10.80
2022-11-16T10:13:26.934Z,10.88
2022-11-16T10:15:01.920Z,11.05
2022-11-16T10:16:08.105Z,10.80
2022-11-16T10:17:21.815Z,10.81
2022-11-16T10:18:41.997Z,10.93
2022-11-16T10:19:53.280Z,10.82
2022-11-16T10:21:31.787Z,10.53
2022-11-16T10:22:43.372Z,10.58
2022-11-16T10:23:59.495Z,10.78
2022-11-16T10:25:06.506Z,10.59
2022-11-16T10:26:17.002Z,10.79
2022-11-16T10:27:34.083Z,10.94
2022-11-16T10:28:55.817Z,10.86
2022-11-16T10:30:02.045Z,10.71
2022-11-16T10:31:13.730Z,10.78
2022-11-16T10:32:21.387Z,10.67
2022-11-16T10:33:26.663Z,10.69
2022-11-16T10:34:34.499Z,10.81
2022-11-16T10:35:39.268Z,10.80
2022-11-16T10:36:40.746Z,10.69
2022-11-16T10:37:47.459Z,10.77
2022-11-16T10:38:48.978Z,10.85
2022-11-16T10:39:52.073Z,10.83
2022-11-16T10:40:57.477Z,10.86
2022-11-16T10:42:07.219Z,10.84
2022-11-16T10:43:13.694Z,10.95
2022-11-16T10:44:21.483Z,10.79
2022-11-16T10:45:28.564Z,10.88
2022-11-16T10:46:36.461Z,10.94
2022-11-16T10:47:42.373Z,10.91
2022-11-16T10:48:54.025Z,10.86
2022-11-16T10:49:59.022Z,10.74
2022-11-16T10:51:01.465Z,10.76
2022-11-16T10:52:03.009Z,10.76
2022-11-16T10:53:04.524Z,10.80
2022-11-16T10:54:12.248Z,10.85
2022-11-16T10:55:15.345Z,10.90
2022-11-16T10:56:21.705Z,10.89
2022-11-16T10:57:23.157Z,10.81
2022-11-16T10:58:24.615Z,10.93
2022-11-16T10:59:39.087Z,10.58
2022-11-16T11:00:45.802Z,10.79
2022-11-16T11:01:49.901Z,10.82
2022-11-16T11:02:51.425Z,10.69
2022-11-16T11:03:52.843Z,10.82
2022-11-16T11:05:07.097Z,10.60
2022-11-16T11:06:11.283Z,10.43
2022-11-16T11:07:23.637Z,10.27
2022-11-16T11:08:27.572Z,10.06
2022-11-16T11:09:31.106Z,10.34
2022-11-16T11:10:34.074Z,10.41
2022-11-16T11:11:35.510Z,10.53
2022-11-16T11:12:36.939Z,10.63
2022-11-16T11:13:38.420Z,10.66
2022-11-16T11:14:39.857Z,10.58
2022-11-16T11:15:42.929Z,10.72
2022-11-16T11:16:44.360Z,10.86
2022-11-16T11:17:48.876Z,10.73
2022-11-16T11:18:50.290Z,10.40
2022-11-16T11:19:57.739Z,10.65
2022-11-16T11:21:12.056Z,10.80
2022-11-16T11:22:14.580Z,10.76
2022-11-16T11:23:18.591Z,10.73
2022-11-16T11:25:50.113Z,10.71
2022-11-16T11:26:53.842Z,10.86
2022-11-16T11:28:05.152Z,11.07
2022-11-16T11:29:20.533Z,11.00
2022-11-16T11:30:22.515Z,11.13
2022-11-16T11:31:32.016Z,10.94
2022-11-16T11:32:39.157Z,10.81
2022-11-16T11:33:49.033Z,11.06
2022-11-16T11:34:52.862Z,11.22
2022-11-16T11:36:02.159Z,11.32
2022-11-16T11:37:06.491Z,11.18
2022-11-16T11:38:15.158Z,11.33
2022-11-16T11:39:29.919Z,11.35
2022-11-16T11:40:31.763Z,11.28
2022-11-16T11:41:35.617Z,11.44
2022-11-16T11:42:50.961Z,11.25
2022-11-16T11:44:01.359Z,11.45
2022-11-16T11:45:08.775Z,11.52
2022-11-16T11:46:16.212Z,11.65
2022-11-16T11:48:00.479Z,11.64
2022-11-16T11:49:00.082Z,11.64
2022-11-16T11:50:10.300Z,11.33
2022-11-16T11:51:19.207Z,11.32
2022-11-16T11:52:25.468Z,11.25
2022-11-16T11:53:53.544Z,11.21
2022-11-16T11:54:55.806Z,11.35
2022-11-16T11:55:58.563Z,11.45
2022-11-16T11:57:03.025Z,11.52
2022-11-16T11:58:07.300Z,11.36
2022-11-16T11:59:13.157Z,10.99
2022-11-16T12:00:15.690Z,11.32
2022-11-16T12:01:53.611Z,11.35
2022-11-16T12:03:13.240Z,11.34
2022-11-16T12:04:41.348Z,10.93
2022-11-16T12:06:10.969Z,11.14
2022-11-16T12:07:22.598Z,11.15
2022-11-16T12:08:40.882Z,11.28
2022-11-16T12:09:47.473Z,11.37
2022-11-16T12:10:52.497Z,11.49
2022-11-16T12:12:04.104Z,11.43
2022-11-16T12:13:22.024Z,11.51
2022-11-16T12:14:37.216Z,11.37
2022-11-16T12:15:51.654Z,11.23
2022-11-16T12:17:00.071Z,11.33
2022-11-16T12:18:17.144Z,11.28
2022-11-16T12:19:40.831Z,11.29
2022-11-16T12:20:52.250Z,11.20
2022-11-16T12:22:00.367Z,11.01
2022-11-16T12:23:17.107Z,11.21
2022-11-16T12:24:35.373Z,11.33
2022-11-16T12:25:43.404Z,11.37
2022-11-16T12:26:58.578Z,11.47
2022-11-16T12:28:16.950Z,11.16
2022-11-16T12:29:24.834Z,11.21
2022-11-16T12:30:26.598Z,11.12
2022-11-16T12:31:55.213Z,11.16
2022-11-16T12:33:10.176Z,10.97
2022-11-16T12:34:22.930Z,10.93
2022-11-16T12:35:40.110Z,11.11
2022-11-16T12:36:51.215Z,11.13
2022-11-16T12:38:01.989Z,10.76
2022-11-16T12:39:20.538Z,10.59
2022-11-16T12:40:35.741Z,10.87
2022-11-16T12:41:53.596Z,10.77
2022-11-16T12:43:01.955Z,10.93
2022-11-16T12:44:08.337Z,11.08
2022-11-16T12:45:39.384Z,11.00
2022-11-16T12:46:51.856Z,10.85
2022-11-16T12:48:10.569Z,10.98
2022-11-16T12:49:28.631Z,10.76
2022-11-16T12:50:45.368Z,10.91
2022-11-16T12:51:58.270Z,10.97
2022-11-16T12:53:18.895Z,11.21
2022-11-16T12:54:57.920Z,10.96
2022-11-16T12:56:14.284Z,10.54
2022-11-16T12:57:23.339Z,11.00
2022-11-16T12:58:46.874Z,11.20
2022-11-16T13:00:03.763Z,11.29
2022-11-16T13:01:12.456Z,11.26
2022-11-16T13:02:28.117Z,11.28
2022-11-16T13:03:37.913Z,11.31
2022-11-16T13:04:45.601Z,11.37
2022-11-16T13:05:56.402Z,11.35
2022-11-16T13:07:09.381Z,11.58
2022-11-16T13:08:18.350Z,11.72
2022-11-16T13:09:23.272Z,11.71
2022-11-16T13:10:28.918Z,11.58
2022-11-16T13:11:34.658Z,10.96
2022-11-16T13:12:37.207Z,11.50
2022-11-16T13:13:40.359Z,11.27
2022-11-16T13:14:44.744Z,11.39
2022-11-16T13:15:46.273Z,11.31
2022-11-16T13:16:48.879Z,11.23
2022-11-16T13:17:55.006Z,11.22
2022-11-16T13:18:59.176Z,11.22
2022-11-16T13:20:21.811Z,11.29
2022-11-16T13:21:35.760Z,11.40
2022-11-16T13:22:40.050Z,11.51
2022-11-16T13:23:51.117Z,11.47
2022-11-16T13:24:58.093Z,11.58
2022-11-16T13:26:06.168Z,11.45
2022-11-16T13:27:23.059Z,11.53
2022-11-16T13:28:33.982Z,11.34
2022-11-16T13:29:44.189Z,11.43
2022-11-16T13:30:56.349Z,11.37
2022-11-16T13:32:07.119Z,11.16
2022-11-16T13:33:22.269Z,11.20
2022-11-16T13:34:26.070Z,11.09
2022-11-16T13:35:27.626Z,11.17
2022-11-16T13:36:41.216Z,11.18
2022-11-16T13:37:44.177Z,11.07
2022-11-16T13:38:52.986Z,11.26
2022-11-16T13:40:20.552Z,11.09
2022-11-16T13:41:31.336Z,11.10
2022-11-16T13:42:35.262Z,11.34
2022-11-16T13:43:36.706Z,11.15
2022-11-16T13:44:38.711Z,11.40
2022-11-16T13:45:43.185Z,11.13
2022-11-16T13:46:56.759Z,11.07
2022-11-16T13:47:59.121Z,11.26
2022-11-16T13:49:00.594Z,11.23
2022-11-16T13:50:05.620Z,11.18
2022-11-16T13:51:17.270Z,11.00
2022-11-16T13:52:28.609Z,10.77
2022-11-16T13:54:38.053Z,10.92
2022-11-16T13:55:14.156Z,10.96
2022-11-16T13:56:16.488Z,10.99
2022-11-16T13:57:24.821Z,10.91
2022-11-16T13:58:28.207Z,10.96
2022-11-16T13:59:32.003Z,10.82
2022-11-16T14:00:35.695Z,10.68
2022-11-16T14:01:55.533Z,10.55
2022-11-16T14:03:30.282Z,10.61
2022-11-16T14:04:40.164Z,10.64
2022-11-16T14:05:43.093Z,10.61
2022-11-16T14:06:58.018Z,10.47
2022-11-16T14:08:39.452Z,10.48
2022-11-16T14:09:42.880Z,10.38
2022-11-16T14:10:59.613Z,10.38
2022-11-16T14:12:54.719Z,10.09
2022-11-16T14:13:57.771Z,10.41
2022-11-16T14:15:12.358Z,10.37
2022-11-16T14:16:41.660Z,10.34
2022-11-16T14:17:52.955Z,10.40
2022-11-16T14:18:56.504Z,10.42
2022-11-16T14:19:58.033Z,10.33
2022-11-16T14:21:10.101Z,10.46
2022-11-16T14:22:23.781Z,10.43